Time;durP1;ratioP1;P1;durP2;ratioP2;P2;SDS_P1;SDS_P2;PMS_P1;PMS_P2;Temp;Humidity;BMP_temperature;BMP_pressure;BME280_temperature;BME280_humidity;BME280_pressure;Samples;Min_cycle;Max_cycle;Signal;HPM_P1;HPM_P2
2023/12/22 00:01:06;;;;;;;13.82;1.35;;;7.10;99.90;;;;;;5018708;28;20029;-73
2023/12/22 00:03:31;;;;;;;15.68;1.40;;;7.20;99.90;;;;;;5019007;28;20046;-72
2023/12/22 00:05:57;;;;;;;8.05;1.58;;;7.20;99.90;;;;;;5034834;28;20056;-72
2023/12/22 00:08:23;;;;;;;6.25;1.38;;;7.20;99.90;;;;;;5038633;28;20029;-72
2023/12/22 00:10:49;;;;;;;6.95;1.75;;;7.30;99.90;;;;;;5034751;28;20026;-72
2023/12/22 00:13:15;;;;;;;5.25;1.20;;;7.30;99.90;;;;;;5012046;28;20034;-73
2023/12/22 00:15:42;;;;;;;10.40;1.45;;;7.30;99.90;;;;;;5010937;28;20105;-73
2023/12/22 00:18:08;;;;;;;12.93;1.10;;;7.30;99.90;;;;;;5007494;28;20032;-72
2023/12/22 00:20:33;;;;;;;5.00;1.00;;;7.30;99.90;;;;;;5011789;28;20103;-72
2023/12/22 00:22:59;;;;;;;2.63;0.95;;;7.50;99.90;;;;;;5008145;28;20156;-73
2023/12/22 00:25:25;;;;;;;11.32;2.30;;;7.50;99.90;;;;;;5017221;28;20087;-73
2023/12/22 00:27:50;;;;;;;7.78;1.23;;;7.40;99.90;;;;;;5030564;28;20029;-72
2023/12/22 00:30:16;;;;;;;5.10;1.08;;;7.30;99.90;;;;;;5025331;28;20030;-72
2023/12/22 00:32:42;;;;;;;4.22;0.82;;;7.30;99.90;;;;;;5019405;28;20034;-73
2023/12/22 00:35:08;;;;;;;2.70;0.50;;;7.40;99.90;;;;;;5013065;28;20038;-73
2023/12/22 00:37:33;;;;;;;3.17;1.00;;;7.40;99.90;;;;;;5037608;28;20025;-73
2023/12/22 00:39:59;;;;;;;2.55;0.70;;;7.40;99.90;;;;;;5017391;28;20026;-73
2023/12/22 00:42:25;;;;;;;3.15;1.20;;;7.30;99.90;;;;;;5047213;28;20022;-72
2023/12/22 00:44:51;;;;;;;5.38;0.80;;;7.30;99.90;;;;;;5017649;28;20066;-73
2023/12/22 00:47:17;;;;;;;4.10;1.05;;;7.30;99.90;;;;;;5017391;28;20073;-73
2023/12/22 00:49:43;;;;;;;2.40;0.60;;;7.20;99.90;;;;;;5050554;28;20068;-73
2023/12/22 00:52:09;;;;;;;3.97;0.75;;;7.20;99.90;;;;;;5017660;28;20046;-73
2023/12/22 00:54:34;;;;;;;5.32;0.80;;;7.10;99.90;;;;;;5019135;28;20076;-72
2023/12/22 00:57:00;;;;;;;4.40;0.70;;;7.10;99.90;;;;;;5027835;28;20029;-73
2023/12/22 00:59:25;;;;;;;6.70;1.25;;;7.00;99.90;;;;;;5017943;28;20021;-73
2023/12/22 01:01:51;;;;;;;6.40;0.80;;;6.90;99.90;;;;;;5016997;28;20022;-73
2023/12/22 01:04:17;;;;;;;2.00;0.57;;;6.80;99.90;;;;;;5016976;28;20117;-73
2023/12/22 01:06:42;;;;;;;3.08;0.68;;;6.90;99.90;;;;;;5017206;28;20098;-73
2023/12/22 01:09:08;;;;;;;0.73;0.47;;;6.80;99.90;;;;;;5017496;28;20077;-72
2023/12/22 01:11:33;;;;;;;3.70;0.73;;;6.90;99.90;;;;;;5017123;28;20084;-73
2023/12/22 01:13:59;;;;;;;2.25;0.65;;;7.00;99.90;;;;;;5016999;28;20061;-72
2023/12/22 01:16:24;;;;;;;1.85;0.55;;;6.80;99.90;;;;;;5016535;28;20033;-73
2023/12/22 01:18:50;;;;;;;5.10;0.75;;;6.80;99.90;;;;;;5016692;28;20034;-73
2023/12/22 01:21:17;;;;;;;3.35;0.98;;;6.80;99.90;;;;;;5017567;28;20030;-73
2023/12/22 01:23:42;;;;;;;2.63;0.40;;;6.80;99.90;;;;;;5017529;28;20060;-73
2023/12/22 01:26:08;;;;;;;4.57;0.93;;;6.80;99.90;;;;;;5016780;28;20026;-73
2023/12/22 01:28:35;;;;;;;4.07;0.47;;;6.70;99.90;;;;;;5017366;28;20154;-72
2023/12/22 01:31:01;;;;;;;5.63;0.88;;;6.70;99.90;;;;;;5017299;28;20022;-73
2023/12/22 01:33:26;;;;;;;9.00;1.30;;;6.70;99.90;;;;;;5016367;28;20022;-73
2023/12/22 01:35:52;;;;;;;1.92;0.60;;;6.70;99.90;;;;;;5017211;28;20081;-73
2023/12/22 01:38:18;;;;;;;2.25;0.98;;;6.70;99.90;;;;;;5017322;28;20058;-73
2023/12/22 01:40:44;;;;;;;2.30;0.68;;;6.70;99.90;;;;;;5049681;28;20018;-73
2023/12/22 01:43:09;;;;;;;4.07;1.30;;;6.70;99.90;;;;;;5016723;28;20033;-72
2023/12/22 01:45:35;;;;;;;3.80;0.60;;;6.70;99.90;;;;;;5017258;28;20029;-73
2023/12/22 01:48:02;;;;;;;12.13;1.05;;;6.70;99.90;;;;;;5016263;28;20026;-73
2023/12/22 01:50:28;;;;;;;5.68;0.73;;;6.60;99.90;;;;;;5016198;28;20030;-73
2023/12/22 01:52:55;;;;;;;10.43;0.60;;;6.70;99.90;;;;;;5017063;28;20033;-73
2023/12/22 01:55:21;;;;;;;5.43;0.88;;;6.70;99.90;;;;;;5016975;28;20030;-73
2023/12/22 01:57:48;;;;;;;2.35;0.60;;;6.60;99.90;;;;;;5016138;28;20022;-72
2023/12/22 02:00:14;;;;;;;3.78;0.80;;;6.70;99.90;;;;;;5016737;28;20104;-72
2023/12/22 02:02:42;;;;;;;3.70;1.00;;;6.70;99.90;;;;;;5017022;28;20065;-73
2023/12/22 02:05:11;;;;;;;7.72;0.85;;;6.80;99.90;;;;;;5017383;28;20132;-73
2023/12/22 02:07:39;;;;;;;3.97;0.80;;;6.70;99.90;;;;;;5012549;28;20025;-73
2023/12/22 02:10:07;;;;;;;5.30;0.98;;;6.70;99.90;;;;;;5017316;28;20026;-73
2023/12/22 02:12:32;;;;;;;8.52;0.80;;;6.70;99.90;;;;;;5016461;28;20032;-73
2023/12/22 02:14:58;;;;;;;5.07;0.55;;;6.70;99.90;;;;;;5017268;28;20117;-73
2023/12/22 02:17:38;;;;;;;4.32;0.90;;;6.70;99.90;;;;;;5015952;28;20026;-73
2023/12/22 02:20:06;;;;;;;8.63;1.05;;;6.80;99.90;;;;;;5016838;28;20018;-73
2023/12/22 02:22:31;;;;;;;2.22;0.70;;;6.80;99.90;;;;;;5016205;28;20037;-72
2023/12/22 02:24:57;;;;;;;6.53;1.08;;;6.70;99.90;;;;;;5017044;28;20018;-73
2023/12/22 02:27:28;;;;;;;3.10;0.70;;;6.70;99.90;;;;;;5016112;28;20113;-73
2023/12/22 02:30:21;;;;;;;4.97;0.80;;;6.80;99.90;;;;;;5017019;28;20022;-73
2023/12/22 02:32:50;;;;;;;8.13;1.10;;;6.60;99.90;;;;;;5016580;28;20265;-73
2023/12/22 02:35:19;;;;;;;5.07;0.47;;;6.50;99.90;;;;;;5017230;28;20057;-73
2023/12/22 02:37:47;;;;;;;2.08;0.43;;;6.50;99.90;;;;;;5016318;28;20030;-73
2023/12/22 02:40:14;;;;;;;3.95;0.60;;;6.50;99.90;;;;;;5016788;28;20022;-72
2023/12/22 02:42:40;;;;;;;2.13;0.50;;;6.50;99.90;;;;;;5018570;28;20129;-73
2023/12/22 02:45:06;;;;;;;4.60;0.50;;;6.40;99.90;;;;;;5019784;28;20069;-73
2023/12/22 02:47:33;;;;;;;2.08;0.30;;;6.50;99.90;;;;;;5019618;28;20018;-73
2023/12/22 02:49:58;;;;;;;6.53;0.40;;;6.50;99.90;;;;;;5020361;28;20025;-73
2023/12/22 02:52:24;;;;;;;3.45;0.35;;;6.50;99.90;;;;;;5019580;28;20022;-73
2023/12/22 02:54:50;;;;;;;1.38;0.40;;;6.60;99.90;;;;;;5020374;28;20018;-73
2023/12/22 02:57:15;;;;;;;1.23;0.40;;;6.50;99.90;;;;;;5019342;28;20021;-73
2023/12/22 02:59:41;;;;;;;4.57;0.80;;;6.50;99.90;;;;;;5019553;28;20022;-73
2023/12/22 03:02:06;;;;;;;2.13;0.30;;;6.50;99.90;;;;;;5019721;28;20018;-73
2023/12/22 03:04:32;;;;;;;5.20;0.55;;;6.40;99.90;;;;;;5019461;28;20060;-73
2023/12/22 03:06:57;;;;;;;4.35;0.50;;;6.30;99.90;;;;;;5019258;28;20076;-73
2023/12/22 03:09:23;;;;;;;3.22;0.68;;;6.30;99.90;;;;;;5019544;28;20041;-73
2023/12/22 03:11:49;;;;;;;4.20;0.45;;;6.30;99.90;;;;;;5020094;28;20092;-73
2023/12/22 03:14:14;;;;;;;1.13;0.30;;;6.10;99.90;;;;;;5019995;28;20042;-73
2023/12/22 03:16:40;;;;;;;1.70;0.50;;;6.00;99.90;;;;;;5019831;28;20084;-73
2023/12/22 03:19:07;;;;;;;3.45;0.55;;;6.00;99.90;;;;;;5019866;28;20033;-73
2023/12/22 03:21:32;;;;;;;1.20;0.20;;;5.80;99.90;;;;;;5019775;28;20026;-72
2023/12/22 03:23:58;;;;;;;3.03;0.75;;;5.70;99.90;;;;;;5019750;28;20022;-73
2023/12/22 03:26:26;;;;;;;2.92;0.35;;;5.50;99.90;;;;;;5019016;28;20025;-73
2023/12/22 03:28:51;;;;;;;0.40;0.17;;;5.50;99.90;;;;;;5019562;28;20104;-73
2023/12/22 03:31:17;;;;;;;0.80;0.47;;;5.50;99.90;;;;;;5018754;28;20080;-73
2023/12/22 03:33:42;;;;;;;5.47;1.75;;;5.40;99.90;;;;;;5018851;28;20089;-73
2023/12/22 03:36:08;;;;;;;1.83;0.20;;;5.30;99.90;;;;;;5018566;28;20022;-73
2023/12/22 03:38:33;;;;;;;0.10;0.10;;;5.10;99.90;;;;;;5018959;28;20121;-73
2023/12/22 03:40:59;;;;;;;0.60;0.40;;;5.10;99.90;;;;;;5018590;28;20018;-73
2023/12/22 03:43:24;;;;;;;3.20;0.80;;;5.20;99.90;;;;;;5018525;28;20109;-73
2023/12/22 03:45:50;;;;;;;1.65;0.20;;;5.10;99.90;;;;;;5018583;28;20034;-73
2023/12/22 03:48:15;;;;;;;0.52;0.20;;;5.10;99.90;;;;;;5018333;28;20022;-73
2023/12/22 03:50:41;;;;;;;0.32;0.00;;;5.20;99.90;;;;;;5018404;28;20026;-73
2023/12/22 03:53:06;;;;;;;2.40;0.20;;;5.10;99.90;;;;;;5019461;28;20061;-72
2023/12/22 03:55:32;;;;;;;1.65;0.10;;;5.10;99.90;;;;;;5019193;28;20076;-73
2023/12/22 03:57:57;;;;;;;0.63;0.20;;;5.10;99.90;;;;;;5018320;28;20022;-73
2023/12/22 04:00:23;;;;;;;0.08;0.08;;;5.10;99.90;;;;;;5018201;28;20022;-72
2023/12/22 04:02:48;;;;;;;0.05;0.00;;;5.00;99.90;;;;;;5019264;28;20026;-72
2023/12/22 04:05:14;;;;;;;1.60;0.10;;;5.00;99.90;;;;;;5019078;28;20040;-73
2023/12/22 04:07:39;;;;;;;0.77;0.00;;;5.10;99.90;;;;;;5018085;28;20045;-72
2023/12/22 04:10:05;;;;;;;1.15;0.38;;;5.10;99.90;;;;;;5018173;28;20026;-72
2023/12/22 04:12:31;;;;;;;0.77;0.28;;;5.00;99.90;;;;;;5018140;28;20029;-72
2023/12/22 04:14:56;;;;;;;1.40;0.20;;;5.10;99.90;;;;;;5018758;28;20033;-73
2023/12/22 04:17:22;;;;;;;0.77;0.30;;;5.10;99.90;;;;;;5017663;28;20025;-72
2023/12/22 04:19:47;;;;;;;3.60;0.50;;;5.10;99.90;;;;;;5054640;23;20045;-75
2023/12/22 04:22:13;;;;;;;0.35;0.20;;;5.10;99.90;;;;;;5038594;28;20034;-75
2023/12/22 04:24:38;;;;;;;0.95;0.32;;;5.10;99.90;;;;;;5038633;28;20098;-75
2023/12/22 04:27:04;;;;;;;0.50;0.30;;;5.20;99.90;;;;;;5037575;28;20021;-75
2023/12/22 04:29:30;;;;;;;3.70;0.30;;;5.20;99.90;;;;;;5038650;28;20021;-75
2023/12/22 04:31:55;;;;;;;4.57;0.55;;;5.00;99.90;;;;;;5038398;28;20032;-75
2023/12/22 04:34:21;;;;;;;2.80;0.75;;;4.90;99.90;;;;;;5038378;28;20036;-75
2023/12/22 04:36:46;;;;;;;4.15;0.45;;;4.90;99.90;;;;;;5038176;28;20025;-75
2023/12/22 04:39:12;;;;;;;8.75;0.80;;;4.90;99.90;;;;;;5037200;28;20022;-75
2023/12/22 04:41:38;;;;;;;3.83;0.40;;;4.90;99.90;;;;;;5037429;28;20055;-75
2023/12/22 04:44:04;;;;;;;6.05;0.38;;;4.90;99.90;;;;;;5038078;28;20052;-75
2023/12/22 04:46:30;;;;;;;1.80;0.50;;;5.00;99.90;;;;;;5037145;28;20037;-75
2023/12/22 04:48:56;;;;;;;3.65;0.40;;;5.00;99.90;;;;;;5038034;28;20052;-75
2023/12/22 04:51:21;;;;;;;3.85;0.30;;;5.10;99.90;;;;;;5037901;28;20032;-75
2023/12/22 04:53:47;;;;;;;2.63;0.17;;;5.00;99.90;;;;;;5036957;28;20116;-75
2023/12/22 04:56:13;;;;;;;3.90;0.15;;;5.00;99.90;;;;;;5036877;28;20064;-76
2023/12/22 04:58:38;;;;;;;1.35;0.30;;;5.10;99.90;;;;;;5037785;28;20018;-75
2023/12/22 05:01:04;;;;;;;1.10;0.15;;;5.20;99.90;;;;;;5036855;28;20017;-75
2023/12/22 05:03:29;;;;;;;1.25;0.60;;;5.30;99.90;;;;;;5037736;28;20022;-75
2023/12/22 05:05:55;;;;;;;1.08;0.25;;;5.30;99.90;;;;;;5037161;28;20108;-75
2023/12/22 05:08:21;;;;;;;0.00;0.00;;;5.30;99.90;;;;;;5037892;28;20048;-76
2023/12/22 05:10:46;;;;;;;0.00;0.00;;;5.30;99.90;;;;;;5037059;28;20026;-75
2023/12/22 05:13:12;;;;;;;0.80;0.10;;;5.20;99.90;;;;;;5037582;28;20033;-75
2023/12/22 05:15:37;;;;;;;0.75;0.20;;;5.20;99.90;;;;;;5036839;28;20036;-75
2023/12/22 05:18:03;;;;;;;1.08;0.35;;;5.10;99.90;;;;;;5036468;28;20025;-75
2023/12/22 05:20:28;;;;;;;0.13;0.08;;;4.90;99.90;;;;;;5037580;28;20061;-75
2023/12/22 05:22:54;;;;;;;0.38;0.20;;;4.90;99.90;;;;;;5037398;28;20033;-75
2023/12/22 05:25:19;;;;;;;0.38;0.20;;;4.80;99.90;;;;;;5037307;28;20038;-75
2023/12/22 05:27:45;;;;;;;0.82;0.30;;;4.70;99.90;;;;;;5037396;28;20029;-75
2023/12/22 05:30:11;;;;;;;3.28;0.40;;;4.70;99.90;;;;;;5036567;28;20102;-75
2023/12/22 05:32:37;;;;;;;3.30;0.30;;;4.70;99.90;;;;;;5036767;28;20189;-75
2023/12/22 05:35:02;;;;;;;0.98;0.10;;;4.80;99.90;;;;;;5037142;28;20069;-75
2023/12/22 05:37:28;;;;;;;0.10;0.10;;;4.90;99.90;;;;;;5036262;28;20120;-75
2023/12/22 05:39:53;;;;;;;1.67;0.40;;;4.90;99.90;;;;;;5036509;28;20067;-76
2023/12/22 05:42:19;;;;;;;1.52;0.30;;;5.00;99.90;;;;;;5037116;28;20037;-76
2023/12/22 05:44:46;;;;;;;1.55;0.55;;;5.10;99.90;;;;;;5036991;28;20028;-75
2023/12/22 05:47:13;;;;;;;2.90;0.50;;;5.10;99.90;;;;;;5036452;28;20038;-75
2023/12/22 05:49:40;;;;;;;5.05;0.50;;;4.80;99.90;;;;;;5036857;28;20025;-75
2023/12/22 05:52:05;;;;;;;1.15;0.50;;;4.70;99.90;;;;;;5036078;28;20033;-75
2023/12/22 05:54:31;;;;;;;1.52;0.60;;;4.60;99.90;;;;;;5037157;28;20025;-75
2023/12/22 05:56:57;;;;;;;17.88;1.77;;;4.50;99.90;;;;;;5036913;28;20025;-75
2023/12/22 05:59:22;;;;;;;14.70;1.52;;;4.60;99.90;;;;;;5037116;28;20034;-75
2023/12/22 06:01:52;;;;;;;6.53;1.60;;;4.70;99.90;;;;;;5037106;28;20025;-75
2023/12/22 06:04:18;;;;;;;16.27;2.53;;;4.80;99.90;;;;;;5037138;28;20021;-75
2023/12/22 06:06:43;;;;;;;12.98;2.28;;;5.00;99.90;;;;;;5037235;28;20041;-75
2023/12/22 06:09:12;;;;;;;10.45;2.95;;;5.00;99.90;;;;;;5036412;28;20083;-76
2023/12/22 06:11:37;;;;;;;11.20;2.03;;;5.10;99.90;;;;;;5036122;28;20093;-76
2023/12/22 06:14:03;;;;;;;9.88;1.88;;;5.10;99.90;;;;;;5036800;28;20104;-75
2023/12/22 06:16:28;;;;;;;4.50;2.22;;;5.10;99.90;;;;;;5036579;28;20052;-75
2023/12/22 06:18:54;;;;;;;11.77;1.83;;;5.20;99.90;;;;;;5040418;28;20022;-75
2023/12/22 06:21:19;;;;;;;13.13;1.65;;;5.40;99.90;;;;;;5039781;28;20025;-75
2023/12/22 06:23:45;;;;;;;9.73;1.52;;;5.40;99.90;;;;;;5039893;28;20088;-75
2023/12/22 06:26:11;;;;;;;11.85;1.98;;;5.40;99.90;;;;;;5039804;28;20030;-75
2023/12/22 06:28:38;;;;;;;10.60;1.73;;;5.50;99.90;;;;;;5039678;28;20022;-75
2023/12/22 06:31:04;;;;;;;8.48;1.70;;;5.60;99.90;;;;;;5040673;28;20025;-75
2023/12/22 06:33:30;;;;;;;5.30;1.25;;;5.60;99.90;;;;;;5040519;28;20029;-75
2023/12/22 06:35:55;;;;;;;7.32;1.25;;;5.60;99.90;;;;;;5039491;28;20021;-75
2023/12/22 06:38:21;;;;;;;10.15;1.52;;;5.70;99.90;;;;;;5039667;28;20167;-75
2023/12/22 06:40:46;;;;;;;8.88;1.52;;;5.80;99.90;;;;;;5040331;28;20075;-75
2023/12/22 06:43:12;;;;;;;4.35;1.10;;;5.80;99.90;;;;;;5040657;28;20075;-76
2023/12/22 06:45:39;;;;;;;5.30;1.13;;;5.90;99.90;;;;;;5040321;28;20026;-75
2023/12/22 06:48:06;;;;;;;6.30;0.85;;;5.80;99.90;;;;;;5040173;28;20136;-75
2023/12/22 06:50:31;;;;;;;10.52;1.60;;;5.90;99.90;;;;;;5039379;28;20029;-75
2023/12/22 06:52:57;;;;;;;10.38;1.73;;;5.90;99.90;;;;;;5039285;28;20025;-75
2023/12/22 06:55:23;;;;;;;5.65;1.52;;;5.90;99.90;;;;;;5040344;28;20028;-75
2023/12/22 06:57:49;;;;;;;6.82;1.65;;;5.90;99.90;;;;;;5040042;28;20035;-75
2023/12/22 07:00:15;;;;;;;4.68;1.90;;;5.80;99.90;;;;;;5039948;28;20025;-75
2023/12/22 07:02:41;;;;;;;7.35;1.27;;;5.80;99.90;;;;;;5039931;28;20057;-75
2023/12/22 07:05:09;;;;;;;6.25;1.30;;;5.80;99.90;;;;;;5039888;28;20022;-75
2023/12/22 07:07:38;;;;;;;7.25;1.27;;;5.70;99.90;;;;;;5040401;28;20049;-75
2023/12/22 07:10:04;;;;;;;3.55;0.95;;;5.70;99.90;;;;;;5039838;28;20029;-75
2023/12/22 07:12:29;;;;;;;5.80;1.40;;;5.80;99.90;;;;;;5038860;28;20034;-75
2023/12/22 07:14:55;;;;;;;11.23;1.60;;;5.80;99.90;;;;;;5039767;28;20055;-75
2023/12/22 07:17:20;;;;;;;3.10;0.60;;;5.80;99.90;;;;;;5039692;28;20122;-75
2023/12/22 07:19:46;;;;;;;7.28;0.98;;;5.80;99.90;;;;;;5039778;28;20040;-75
2023/12/22 07:22:11;;;;;;;6.28;0.70;;;5.80;99.90;;;;;;5039932;28;20100;-75
2023/12/22 07:24:37;;;;;;;2.67;0.80;;;5.80;99.90;;;;;;5038689;28;20028;-75
2023/12/22 07:27:03;;;;;;;3.88;0.70;;;5.80;99.90;;;;;;5039677;28;20104;-75
2023/12/22 07:29:29;;;;;;;4.90;0.52;;;5.80;99.90;;;;;;5038175;28;20030;-75
2023/12/22 07:31:54;;;;;;;3.78;1.15;;;5.80;99.90;;;;;;5038594;28;20106;-75
2023/12/22 07:34:22;;;;;;;6.22;1.10;;;5.70;99.90;;;;;;5039474;28;20026;-75
2023/12/22 07:36:47;;;;;;;4.55;0.73;;;5.80;99.90;;;;;;5039378;28;20031;-75
2023/12/22 07:39:14;;;;;;;5.18;0.77;;;5.80;99.90;;;;;;5039222;28;20026;-75
2023/12/22 07:41:39;;;;;;;4.65;0.68;;;5.80;99.90;;;;;;5038485;28;20029;-76
2023/12/22 07:44:05;;;;;;;8.82;1.13;;;5.80;99.90;;;;;;5039448;28;20021;-75
2023/12/22 07:46:31;;;;;;;8.85;0.90;;;5.80;99.90;;;;;;5039182;28;20032;-75
2023/12/22 07:48:56;;;;;;;16.10;1.60;;;5.80;99.90;;;;;;5038498;28;20105;-75
2023/12/22 07:51:22;;;;;;;5.88;1.27;;;5.90;99.90;;;;;;5038206;28;20026;-75
2023/12/22 07:53:47;;;;;;;4.50;1.52;;;5.90;99.90;;;;;;5039142;28;20026;-75
2023/12/22 07:56:13;;;;;;;3.22;1.75;;;5.90;99.90;;;;;;5039078;28;20085;-75
2023/12/22 07:58:39;;;;;;;5.65;1.65;;;5.90;99.90;;;;;;5037972;28;20022;-75
2023/12/22 08:01:05;;;;;;;5.28;1.10;;;5.90;99.90;;;;;;5039048;28;20029;-75
2023/12/22 08:03:32;;;;;;;7.82;1.90;;;6.00;99.90;;;;;;5038596;28;20026;-75
2023/12/22 08:05:57;;;;;;;4.00;1.70;;;6.10;99.90;;;;;;5039135;28;20025;-75
2023/12/22 08:08:23;;;;;;;11.15;1.25;;;6.20;99.90;;;;;;5026777;28;20084;-75
2023/12/22 08:10:48;;;;;;;4.95;1.40;;;6.20;99.90;;;;;;5018013;28;20022;-75
2023/12/22 08:13:14;;;;;;;6.10;1.20;;;6.10;99.90;;;;;;5018770;28;20030;-75
2023/12/22 08:15:40;;;;;;;7.97;1.75;;;6.10;99.90;;;;;;5017806;28;20030;-75
2023/12/22 08:18:06;;;;;;;9.25;1.63;;;6.10;99.90;;;;;;5017663;28;20026;-74
2023/12/22 08:20:32;;;;;;;7.78;1.42;;;6.20;99.90;;;;;;5018197;28;20037;-75
2023/12/22 08:22:57;;;;;;;11.82;1.33;;;6.20;99.90;;;;;;5018014;28;20026;-75
2023/12/22 08:25:23;;;;;;;8.35;2.00;;;6.20;99.90;;;;;;5018911;28;20037;-75
2023/12/22 08:27:48;;;;;;;22.65;4.28;;;6.30;99.90;;;;;;5019175;28;20037;-75
2023/12/22 08:30:14;;;;;;;11.60;2.47;;;6.40;99.90;;;;;;5018545;28;20034;-75
2023/12/22 08:32:40;;;;;;;23.98;3.50;;;6.40;99.90;;;;;;5018723;28;20077;-76
2023/12/22 08:35:18;;;;;;;12.02;3.47;;;6.30;99.90;;;;;;5021081;28;20026;-75
2023/12/22 08:37:44;;;;;;;17.95;3.22;;;6.40;99.90;;;;;;5037310;28;20025;-76
2023/12/22 08:40:10;;;;;;;8.35;2.10;;;6.30;99.90;;;;;;5036875;28;20028;-75
2023/12/22 08:42:35;;;;;;;7.15;1.23;;;6.40;99.90;;;;;;5038140;28;20029;-75
2023/12/22 08:45:02;;;;;;;7.72;1.58;;;6.50;99.90;;;;;;5037927;28;20041;-75
2023/12/22 08:47:28;;;;;;;11.68;2.55;;;6.60;99.90;;;;;;5032451;28;20094;-76
2023/12/22 08:49:53;;;;;;;15.70;2.17;;;6.70;99.90;;;;;;5036684;28;20112;-75
2023/12/22 08:52:19;;;;;;;11.45;1.73;;;6.70;99.90;;;;;;5035677;28;20028;-75
2023/12/22 08:54:44;;;;;;;6.03;1.35;;;6.60;99.90;;;;;;5026863;28;20017;-75
2023/12/22 08:57:10;;;;;;;5.90;2.05;;;6.50;99.90;;;;;;5034460;28;20040;-76
2023/12/22 08:59:36;;;;;;;8.07;1.77;;;6.50;99.90;;;;;;5026528;28;20014;-75
2023/12/22 09:02:01;;;;;;;6.82;1.40;;;6.60;99.90;;;;;;5036634;28;20021;-75
2023/12/22 09:04:27;;;;;;;4.63;1.65;;;6.90;99.90;;;;;;5029140;28;20022;-75
2023/12/22 09:06:52;;;;;;;11.40;1.70;;;7.00;99.90;;;;;;5024028;28;20096;-75
2023/12/22 09:09:18;;;;;;;9.55;2.28;;;7.00;99.90;;;;;;5023803;28;20038;-76
2023/12/22 09:11:44;;;;;;;4.40;1.42;;;7.20;99.90;;;;;;5036834;28;20029;-75
2023/12/22 09:14:10;;;;;;;6.63;2.15;;;7.30;99.90;;;;;;5024122;28;20048;-76
2023/12/22 09:16:36;;;;;;;8.32;1.55;;;7.30;99.90;;;;;;5017474;28;20026;-75
2023/12/22 09:19:02;;;;;;;6.03;1.50;;;7.30;99.90;;;;;;5017378;28;20036;-76
2023/12/22 09:21:28;;;;;;;6.22;1.38;;;7.30;99.90;;;;;;5030484;28;20025;-76
2023/12/22 09:23:54;;;;;;;4.25;1.38;;;7.20;99.90;;;;;;5034484;28;20113;-74
2023/12/22 09:26:20;;;;;;;3.40;0.80;;;7.30;99.90;;;;;;5019830;28;20026;-73
2023/12/22 09:28:46;;;;;;;7.70;0.90;;;7.30;99.90;;;;;;5017099;28;20030;-74
2023/12/22 09:31:14;;;;;;;1.58;0.45;;;7.30;99.90;;;;;;5017479;28;20037;-75
2023/12/22 09:33:41;;;;;;;2.05;0.70;;;7.30;99.90;;;;;;5017374;28;20037;-77
2023/12/22 09:36:07;;;;;;;3.88;0.70;;;7.20;99.90;;;;;;5017329;28;20044;-75
2023/12/22 09:38:33;;;;;;;3.63;0.80;;;7.20;99.90;;;;;;5031786;28;20045;-74
2023/12/22 09:40:59;;;;;;;1.65;0.70;;;7.20;99.90;;;;;;5036266;28;20033;-75
2023/12/22 09:43:25;;;;;;;3.85;0.70;;;7.20;99.90;;;;;;5036021;28;20025;-76
2023/12/22 09:45:52;;;;;;;1.13;0.60;;;7.20;99.90;;;;;;5036165;28;20112;-76
2023/12/22 09:48:18;;;;;;;0.88;0.52;;;7.20;99.90;;;;;;5036373;28;20036;-74
2023/12/22 09:50:44;;;;;;;3.10;0.88;;;7.20;99.90;;;;;;5036258;28;20021;-74
2023/12/22 09:53:12;;;;;;;5.90;1.00;;;7.20;99.90;;;;;;5036043;28;20116;-75
2023/12/22 09:55:42;;;;;;;1.98;0.73;;;7.20;99.90;;;;;;5035959;28;20022;-74
2023/12/22 09:58:09;;;;;;;1.77;0.65;;;7.20;99.90;;;;;;5036398;28;20109;-74
2023/12/22 10:00:36;;;;;;;1.92;0.75;;;7.10;99.90;;;;;;5036002;28;20022;-74
2023/12/22 10:03:06;;;;;;;3.22;1.10;;;7.10;99.90;;;;;;5036950;28;20022;-74
2023/12/22 10:05:32;;;;;;;1.45;0.73;;;7.20;99.90;;;;;;5036223;28;20116;-74
2023/12/22 10:08:00;;;;;;;7.78;1.05;;;7.30;99.90;;;;;;5035769;28;20115;-73
2023/12/22 10:10:29;;;;;;;5.35;0.82;;;7.30;99.90;;;;;;5035875;28;20025;-77
2023/12/22 10:12:55;;;;;;;7.75;1.05;;;7.30;99.90;;;;;;5036564;28;20044;-76
2023/12/22 10:15:25;;;;;;;3.80;0.90;;;7.40;99.90;;;;;;5036048;28;20052;-77
2023/12/22 10:17:52;;;;;;;4.03;1.00;;;7.40;99.90;;;;;;5036610;28;20026;-77
2023/12/22 10:20:18;;;;;;;5.75;1.30;;;7.40;99.90;;;;;;5023596;28;20092;-77
2023/12/22 10:22:43;;;;;;;2.30;0.75;;;7.50;99.90;;;;;;5016898;28;20030;-75
2023/12/22 10:25:09;;;;;;;6.57;1.10;;;7.50;99.90;;;;;;5016173;28;20021;-75
2023/12/22 10:27:36;;;;;;;3.10;0.82;;;7.50;99.90;;;;;;5016830;28;20080;-75
2023/12/22 10:30:03;;;;;;;6.75;1.33;;;7.50;99.90;;;;;;5034468;28;20068;-74
2023/12/22 10:32:29;;;;;;;4.68;1.73;;;7.50;99.90;;;;;;5035973;28;20026;-77
2023/12/22 10:34:55;;;;;;;5.18;1.30;;;7.50;99.90;;;;;;5035903;28;20025;-77
2023/12/22 10:37:21;;;;;;;7.30;1.75;;;7.70;99.90;;;;;;5035469;28;20080;-77
2023/12/22 10:39:48;;;;;;;8.88;1.98;;;7.70;99.90;;;;;;5036445;28;20026;-76
2023/12/22 10:42:14;;;;;;;4.70;1.20;;;7.70;99.90;;;;;;5035965;28;20021;-76
2023/12/22 10:44:41;;;;;;;8.85;1.88;;;7.70;99.90;;;;;;5036377;28;20075;-76
2023/12/22 10:47:07;;;;;;;8.52;2.35;;;7.70;99.90;;;;;;5036212;28;20099;-77
2023/12/22 10:49:33;;;;;;;5.32;1.70;;;7.70;99.90;;;;;;5035487;28;20097;-76
2023/12/22 10:52:00;;;;;;;5.00;1.48;;;7.70;99.90;;;;;;5035546;28;20025;-75
2023/12/22 10:54:27;;;;;;;7.80;1.90;;;7.70;99.90;;;;;;5036402;28;20026;-73
2023/12/22 10:56:54;;;;;;;11.95;2.00;;;7.80;99.90;;;;;;5036153;28;20028;-73
2023/12/22 10:59:23;;;;;;;8.02;1.60;;;7.90;99.90;;;;;;5027556;28;20022;-73
2023/12/22 11:01:51;;;;;;;10.85;1.50;;;7.90;99.90;;;;;;5022085;28;20018;-76
2023/12/22 11:04:20;;;;;;;9.65;1.67;;;7.90;99.90;;;;;;5038372;28;20108;-76
2023/12/22 11:06:48;;;;;;;6.72;1.88;;;8.00;99.90;;;;;;5039906;28;20022;-76
2023/12/22 11:09:17;;;;;;;9.63;2.10;;;8.00;99.90;;;;;;5038957;28;20032;-75
2023/12/22 11:11:42;;;;;;;9.98;2.78;;;8.00;99.90;;;;;;5039348;28;20052;-76
2023/12/22 11:14:09;;;;;;;10.60;2.47;;;8.10;99.90;;;;;;5040047;28;20034;-75
2023/12/22 11:16:36;;;;;;;12.05;1.92;;;8.20;99.90;;;;;;5038152;28;20021;-75
2023/12/22 11:19:03;;;;;;;9.82;2.22;;;8.20;99.90;;;;;;5031820;28;20033;-75
2023/12/22 11:21:29;;;;;;;12.40;2.10;;;8.20;99.90;;;;;;5038365;28;20108;-75
2023/12/22 11:23:57;;;;;;;9.73;2.63;;;8.30;99.90;;;;;;5036105;28;20044;-76
2023/12/22 11:26:24;;;;;;;13.07;2.45;;;8.20;99.90;;;;;;5038999;28;20025;-75
2023/12/22 11:28:51;;;;;;;11.73;3.38;;;8.20;99.90;;;;;;5039449;28;20025;-76
2023/12/22 11:31:17;;;;;;;11.90;3.40;;;8.20;99.90;;;;;;5038813;28;20040;-75
2023/12/22 11:33:50;;;;;;;13.48;3.13;;;8.30;99.90;;;;;;5039332;28;20029;-75
2023/12/22 11:36:17;;;;;;;11.07;3.15;;;8.30;99.90;;;;;;5038298;28;20025;-76
2023/12/22 11:38:46;;;;;;;12.95;3.38;;;8.40;99.90;;;;;;5039188;28;20017;-76
2023/12/22 11:41:24;;;;;;;15.75;2.85;;;8.40;99.90;;;;;;5039279;28;20081;-76
2023/12/22 11:43:51;;;;;;;8.65;2.35;;;8.50;99.90;;;;;;5038287;28;20026;-75
2023/12/22 11:46:20;;;;;;;6.85;1.77;;;8.50;99.90;;;;;;5039095;28;20030;-75
2023/12/22 11:48:52;;;;;;;12.63;2.55;;;8.50;99.90;;;;;;5038162;28;20053;-75
2023/12/22 11:51:18;;;;;;;10.32;1.83;;;8.50;99.90;;;;;;5038038;28;20112;-75
2023/12/22 11:53:45;;;;;;;8.43;2.55;;;8.50;99.90;;;;;;5038622;28;20045;-76
2023/12/22 11:56:12;;;;;;;10.80;3.33;;;8.50;99.90;;;;;;5029704;28;20033;-76
2023/12/22 11:58:53;;;;;;;10.75;3.20;;;8.60;99.90;;;;;;5019000;28;20025;-76
2023/12/22 12:01:23;;;;;;;4.00;1.00;;;8.50;99.90;;;;;;5031278;28;20017;-76
2023/12/22 12:03:59;;;;;;;7.45;2.47;;;8.50;99.90;;;;;;5038164;28;20047;-75
2023/12/22 12:06:25;;;;;;;11.60;3.40;;;8.50;99.90;;;;;;5038231;28;20033;-75
2023/12/22 12:08:53;;;;;;;34.05;9.75;;;8.60;99.90;;;;;;5037787;28;20021;-76
2023/12/22 12:11:22;;;;;;;8.43;3.30;;;8.70;99.90;;;;;;5032874;28;20033;-77
2023/12/22 12:13:48;;;;;;;7.15;1.88;;;8.70;99.90;;;;;;5017989;28;20032;-76
2023/12/22 12:16:18;;;;;;;12.35;3.75;;;8.60;99.90;;;;;;5018682;28;20026;-75
2023/12/22 12:18:45;;;;;;;6.68;1.80;;;8.70;99.90;;;;;;5018549;28;20109;-76
2023/12/22 12:21:11;;;;;;;9.00;3.65;;;8.80;99.90;;;;;;5023419;28;20033;-76
2023/12/22 12:23:38;;;;;;;6.95;2.65;;;8.70;99.90;;;;;;5037568;28;20079;-76
2023/12/22 12:26:06;;;;;;;7.53;1.80;;;8.70;99.90;;;;;;5038397;28;20044;-76
2023/12/22 12:28:33;;;;;;;2.47;0.98;;;8.70;99.90;;;;;;5037149;28;20120;-75
2023/12/22 12:31:03;;;;;;;3.33;0.88;;;8.60;99.90;;;;;;5038173;28;20021;-76
2023/12/22 12:33:29;;;;;;;1.92;0.77;;;8.50;99.90;;;;;;5038309;28;20029;-76
2023/12/22 12:36:00;;;;;;;3.75;0.75;;;8.50;99.90;;;;;;5037936;28;20053;-75
2023/12/22 12:39:03;;;;;;;4.10;1.20;;;8.50;99.90;;;;;;5038330;28;20112;-76
2023/12/22 12:41:32;;;;;;;3.05;0.80;;;8.40;99.90;;;;;;5037079;28;20025;-76
2023/12/22 12:44:03;;;;;;;3.10;0.68;;;8.30;99.90;;;;;;5037795;28;20021;-76
2023/12/22 12:46:41;;;;;;;3.30;0.50;;;8.20;99.90;;;;;;5038100;28;20037;-77
2023/12/22 12:49:08;;;;;;;3.42;0.88;;;8.00;99.90;;;;;;5036966;28;20057;-76
2023/12/22 12:51:42;;;;;;;3.72;0.80;;;7.80;99.90;;;;;;5053658;28;20052;-76